JOIDES Resolution — 5BMM3 — position and weather

sailwx.info

Track history (hours):
 
Tides and Currents Weather Stations Pressure Air Temp Water Temp Dewpoint Dewpoint Depression Visibility Wind Speed Wind Dir Waves Ship Positions

Oceanographic research ship JOIDES Resolution (USA)

Ex D5BC.

Ship's website: http://joidesresolution.org/

Detailed information on ship capabilities available from University of Delaware's Ocean Information Center.

Last reported at 2019-Nov-22 10:55 UTC. Time now 2019-Dec-12 08:28 UTC.
Position N 32°18' W 117°49'.
Warning: this ship's position is 19 days out of date.

Length 143 m; draft 6.1 m.

Type: Dredging. MMSI: 208440424.

Date/timePositionNaut miles runAvg speedWind from/ knotsBaromVisibWave heightAir tempDewpointWater temp
2019-Nov-22 10:55N 32°18' W 117°49'2312.3
2019-Nov-22 09:00N 32°33' W 117°27'612.0
2019-Nov-22 08:30N 32°37' W 117°22'2 2.2
2019-Nov-22 07:30N 32°38' W 117°19'0 0.0
2019-Nov-22 07:00N 32°38' W 117°19'0 0.0
2019-Nov-22 06:00N 32°38' W 117°19'1 0.6
2019-Nov-22 03:30N 32°39' W 117°19'0 0.0
2019-Nov-22 02:30N 32°39' W 117°19'0 0.2
2019-Nov-21 23:30N 32°39' W 117°19'1 0.3
2019-Nov-21 19:30N 32°38' W 117°20'2 1.4
2019-Nov-21 18:00N 32°38' W 117°17'7 7.3
2019-Nov-21 17:00N 32°43' W 117°11'1 1.2
2019-Nov-21 16:00N 32°42' W 117°09'0 0.0
2019-Nov-21 15:30N 32°42' W 117°09'0 0.0
2019-Nov-21 12:29N 32°42' W 117°09'0 0.0
2019-Nov-21 11:59N 32°42' W 117°09'0 0.0
2019-Nov-21 10:29N 32°42' W 117°09'0 0.0
2019-Nov-21 09:58N 32°42' W 117°09'0 0.0
2019-Nov-21 08:58N 32°42' W 117°09'0 0.0
2019-Nov-21 07:28N 32°42' W 117°09'0 0.0
2019-Nov-21 05:28N 32°42' W 117°09'0 0.0
2019-Nov-21 03:28N 32°42' W 117°09'0 0.0
2019-Nov-21 01:28N 32°42' W 117°09'0 0.0
2019-Nov-21 00:28N 32°42' W 117°09'0 0.0
2019-Nov-20 22:58N 32°42' W 117°09'0 0.0
2019-Nov-20 21:58N 32°42' W 117°09'0 0.0
2019-Nov-20 21:28N 32°42' W 117°09'0 0.0
2019-Nov-20 20:58N 32°42' W 117°09'0 0.0
2019-Nov-20 19:58N 32°42' W 117°09'0 0.0
2019-Nov-20 18:28N 32°42' W 117°09'0 0.0
2019-Nov-20 17:58N 32°42' W 117°09'0 0.0
2019-Nov-20 14:28N 32°42' W 117°09'0 0.0
2019-Nov-20 12:58N 32°42' W 117°09'0 0.0
2019-Nov-20 11:58N 32°42' W 117°09'0 0.0
2019-Nov-20 08:28N 32°42' W 117°09'0 0.0
2019-Nov-20 07:28N 32°42' W 117°09'0 0.0
2019-Nov-20 06:28N 32°42' W 117°09'0 0.0
2019-Nov-20 04:31N 32°42' W 117°09'0 0.0
2019-Nov-20 03:30N 32°42' W 117°09'0 0.0
2019-Nov-20 02:30N 32°42' W 117°09'0 0.0
2019-Nov-19 23:30N 32°42' W 117°09'0 0.0
2019-Nov-19 22:30N 32°42' W 117°09'0 0.0
2019-Nov-19 21:00N 32°42' W 117°09'0 0.0
2019-Nov-19 18:30N 32°42' W 117°09'0 0.0
2019-Nov-19 18:00N 32°42' W 117°09'0 0.0
2019-Nov-19 16:30N 32°42' W 117°09'0 0.0
2019-Nov-19 14:30N 32°42' W 117°09'0 0.0
2019-Nov-19 13:30N 32°42' W 117°09'0 0.0
2019-Nov-19 11:00N 32°42' W 117°09'0 0.0
2019-Nov-19 09:00N 32°42' W 117°09'0 0.0
2019-Nov-19 07:00N 32°42' W 117°09'0 0.0
2019-Nov-19 04:30N 32°42' W 117°09'0 0.0
2019-Nov-19 02:00N 32°42' W 117°09'0 0.0
2019-Nov-18 23:30N 32°42' W 117°09'0 0.0
2019-Nov-18 22:29N 32°42' W 117°09'0 0.0
2019-Nov-18 21:59N 32°42' W 117°09'0 0.0
2019-Nov-18 21:29N 32°42' W 117°09'0 0.0
2019-Nov-18 20:29N 32°42' W 117°09'0 0.0
2019-Nov-18 19:59N 32°42' W 117°09'0 0.0
2019-Nov-18 19:26N 32°42' W 117°09'0 0.0
2019-Nov-18 15:59N 32°42' W 117°09'0 0.0
2019-Nov-18 15:29N 32°42' W 117°09'0 0.0
2019-Nov-18 12:59N 32°42' W 117°09'0 0.0
2019-Nov-18 12:29N 32°42' W 117°09'0 0.0
2019-Nov-18 10:59N 32°42' W 117°09'0 0.0
2019-Nov-18 09:29N 32°42' W 117°09'0 0.0
2019-Nov-18 05:29N 32°42' W 117°09'0 0.0
2019-Nov-18 04:59N 32°42' W 117°09'0 0.0
2019-Nov-18 03:59N 32°42' W 117°09'0 0.0
2019-Nov-18 02:59N 32°42' W 117°09'0 0.0
2019-Nov-18 01:59N 32°42' W 117°09'0 0.0
2019-Nov-18 00:59N 32°42' W 117°09'0 0.0
2019-Nov-17 23:29N 32°42' W 117°09'0 0.0
2019-Nov-17 22:59N 32°42' W 117°09'0 0.0
2019-Nov-17 21:59N 32°42' W 117°09'0 0.0
2019-Nov-17 19:59N 32°42' W 117°09'0 0.0
2019-Nov-17 17:29N 32°42' W 117°09'0 0.0
2019-Nov-17 16:59N 32°42' W 117°09'0 0.0
2019-Nov-17 07:28N 32°42' W 117°09'0 0.0
2019-Nov-17 04:28N 32°42' W 117°09'0 0.0
2019-Nov-17 03:58N 32°42' W 117°09'0 0.0
2019-Nov-17 03:28N 32°42' W 117°09'0 0.0
2019-Nov-17 01:28N 32°42' W 117°09'0 0.0
2019-Nov-16 21:28N 32°42' W 117°09'0 0.0
2019-Nov-16 20:28N 32°42' W 117°09'0 0.0
2019-Nov-16 19:28N 32°42' W 117°09'0 0.0
2019-Nov-16 18:58N 32°42' W 117°09'0 0.0
2019-Nov-16 18:28N 32°42' W 117°09'0 0.0
2019-Nov-16 17:28N 32°42' W 117°09'0 0.0
2019-Nov-16 16:58N 32°42' W 117°09'0 0.0
2019-Nov-16 15:58N 32°42' W 117°09'0 0.0
2019-Nov-16 15:28N 32°42' W 117°09'0 0.0
2019-Nov-16 07:30N 32°42' W 117°09'0 0.0
2019-Nov-16 06:30N 32°42' W 117°09'0 0.0
2019-Nov-16 03:27N 32°42' W 117°09'0 0.0
2019-Nov-16 03:00N 32°42' W 117°09'0 0.0
2019-Nov-16 02:30N 32°42' W 117°09'17 4.3
2019-Nov-15 22:30N 32°28' W 117°23'19 7.6
2019-Nov-15 19:58N 32°11' W 117°33'58 9.0
2019-Nov-15 13:29N 31°15' W 117°14'14 9.2
2019-Nov-15 11:56N 31°02' W 117°09'22 9.1
2019-Nov-15 09:30N 30°41' W 117°02'9 9.0
2019-Nov-15 08:30N 30°32' W 116°60'14 9.0
2019-Nov-15 07:00N 30°19' W 116°55'25 8.6
2019-Nov-15 04:07N 29°55' W 116°47'52 8.9
2019-Nov-14 22:11N 29°05' W 116°30'145 9.0
2019-Nov-14 06:04N 26°56' W 115°15'  
Track history (hours):
 
Tides and Currents Weather Stations Pressure Air Temp Water Temp Dewpoint Dewpoint Depression Visibility Wind Speed Wind Dir Waves Ship Positions

Oceanographic research ship JOIDES Resolution (USA)

Ex D5BC.

Ship's website: http://joidesresolution.org/

Detailed information on ship capabilities available from University of Delaware's Ocean Information Center.

Last reported at 2019-Nov-22 10:55 UTC. Time now 2019-Dec-12 08:28 UTC.
Position N 32°18' W 117°49'.
Warning: this ship's position is 19 days out of date.

Length 143 m; draft 6.1 m.

Type: Dredging. MMSI: 208440424.

Date/timePositionNaut miles runAvg speedWind from/ knotsBaromVisibWave heightAir tempDewpointWater temp
2019-Nov-22 10:55N 32°18' W 117°49'2312.3
2019-Nov-22 09:00N 32°33' W 117°27'612.0
2019-Nov-22 08:30N 32°37' W 117°22'2 2.2
2019-Nov-22 07:30N 32°38' W 117°19'0 0.0
2019-Nov-22 07:00N 32°38' W 117°19'0 0.0
2019-Nov-22 06:00N 32°38' W 117°19'1 0.6
2019-Nov-22 03:30N 32°39' W 117°19'0 0.0
2019-Nov-22 02:30N 32°39' W 117°19'0 0.2
2019-Nov-21 23:30N 32°39' W 117°19'1 0.3
2019-Nov-21 19:30N 32°38' W 117°20'2 1.4
2019-Nov-21 18:00N 32°38' W 117°17'7 7.3
2019-Nov-21 17:00N 32°43' W 117°11'1 1.2
2019-Nov-21 16:00N 32°42' W 117°09'0 0.0
2019-Nov-21 15:30N 32°42' W 117°09'0 0.0
2019-Nov-21 12:29N 32°42' W 117°09'0 0.0
2019-Nov-21 11:59N 32°42' W 117°09'0 0.0
2019-Nov-21 10:29N 32°42' W 117°09'0 0.0
2019-Nov-21 09:58N 32°42' W 117°09'0 0.0
2019-Nov-21 08:58N 32°42' W 117°09'0 0.0
2019-Nov-21 07:28N 32°42' W 117°09'0 0.0
2019-Nov-21 05:28N 32°42' W 117°09'0 0.0
2019-Nov-21 03:28N 32°42' W 117°09'0 0.0
2019-Nov-21 01:28N 32°42' W 117°09'0 0.0
2019-Nov-21 00:28N 32°42' W 117°09'0 0.0
2019-Nov-20 22:58N 32°42' W 117°09'0 0.0
2019-Nov-20 21:58N 32°42' W 117°09'0 0.0
2019-Nov-20 21:28N 32°42' W 117°09'0 0.0
2019-Nov-20 20:58N 32°42' W 117°09'0 0.0
2019-Nov-20 19:58N 32°42' W 117°09'0 0.0
2019-Nov-20 18:28N 32°42' W 117°09'0 0.0
2019-Nov-20 17:58N 32°42' W 117°09'0 0.0
2019-Nov-20 14:28N 32°42' W 117°09'0 0.0
2019-Nov-20 12:58N 32°42' W 117°09'0 0.0
2019-Nov-20 11:58N 32°42' W 117°09'0 0.0
2019-Nov-20 08:28N 32°42' W 117°09'0 0.0
2019-Nov-20 07:28N 32°42' W 117°09'0 0.0
2019-Nov-20 06:28N 32°42' W 117°09'0 0.0
2019-Nov-20 04:31N 32°42' W 117°09'0 0.0
2019-Nov-20 03:30N 32°42' W 117°09'0 0.0
2019-Nov-20 02:30N 32°42' W 117°09'0 0.0
2019-Nov-19 23:30N 32°42' W 117°09'0 0.0
2019-Nov-19 22:30N 32°42' W 117°09'0 0.0
2019-Nov-19 21:00N 32°42' W 117°09'0 0.0
2019-Nov-19 18:30N 32°42' W 117°09'0 0.0
2019-Nov-19 18:00N 32°42' W 117°09'0 0.0
2019-Nov-19 16:30N 32°42' W 117°09'0 0.0
2019-Nov-19 14:30N 32°42' W 117°09'0 0.0
2019-Nov-19 13:30N 32°42' W 117°09'0 0.0
2019-Nov-19 11:00N 32°42' W 117°09'0 0.0
2019-Nov-19 09:00N 32°42' W 117°09'0 0.0
2019-Nov-19 07:00N 32°42' W 117°09'0 0.0
2019-Nov-19 04:30N 32°42' W 117°09'0 0.0
2019-Nov-19 02:00N 32°42' W 117°09'0 0.0
2019-Nov-18 23:30N 32°42' W 117°09'0 0.0
2019-Nov-18 22:29N 32°42' W 117°09'0 0.0
2019-Nov-18 21:59N 32°42' W 117°09'0 0.0
2019-Nov-18 21:29N 32°42' W 117°09'0 0.0
2019-Nov-18 20:29N 32°42' W 117°09'0 0.0
2019-Nov-18 19:59N 32°42' W 117°09'0 0.0
2019-Nov-18 19:26N 32°42' W 117°09'0 0.0
2019-Nov-18 15:59N 32°42' W 117°09'0 0.0
2019-Nov-18 15:29N 32°42' W 117°09'0 0.0
2019-Nov-18 12:59N 32°42' W 117°09'0 0.0
2019-Nov-18 12:29N 32°42' W 117°09'0 0.0
2019-Nov-18 10:59N 32°42' W 117°09'0 0.0
2019-Nov-18 09:29N 32°42' W 117°09'0 0.0
2019-Nov-18 05:29N 32°42' W 117°09'0 0.0
2019-Nov-18 04:59N 32°42' W 117°09'0 0.0
2019-Nov-18 03:59N 32°42' W 117°09'0 0.0
2019-Nov-18 02:59N 32°42' W 117°09'0 0.0
2019-Nov-18 01:59N 32°42' W 117°09'0 0.0
2019-Nov-18 00:59N 32°42' W 117°09'0 0.0
2019-Nov-17 23:29N 32°42' W 117°09'0 0.0
2019-Nov-17 22:59N 32°42' W 117°09'0 0.0
2019-Nov-17 21:59N 32°42' W 117°09'0 0.0
2019-Nov-17 19:59N 32°42' W 117°09'0 0.0
2019-Nov-17 17:29N 32°42' W 117°09'0 0.0
2019-Nov-17 16:59N 32°42' W 117°09'0 0.0
2019-Nov-17 07:28N 32°42' W 117°09'0 0.0
2019-Nov-17 04:28N 32°42' W 117°09'0 0.0
2019-Nov-17 03:58N 32°42' W 117°09'0 0.0
2019-Nov-17 03:28N 32°42' W 117°09'0 0.0
2019-Nov-17 01:28N 32°42' W 117°09'0 0.0
2019-Nov-16 21:28N 32°42' W 117°09'0 0.0
2019-Nov-16 20:28N 32°42' W 117°09'0 0.0
2019-Nov-16 19:28N 32°42' W 117°09'0 0.0
2019-Nov-16 18:58N 32°42' W 117°09'0 0.0
2019-Nov-16 18:28N 32°42' W 117°09'0 0.0
2019-Nov-16 17:28N 32°42' W 117°09'0 0.0
2019-Nov-16 16:58N 32°42' W 117°09'0 0.0
2019-Nov-16 15:58N 32°42' W 117°09'0 0.0
2019-Nov-16 15:28N 32°42' W 117°09'0 0.0
2019-Nov-16 07:30N 32°42' W 117°09'0 0.0
2019-Nov-16 06:30N 32°42' W 117°09'0 0.0
2019-Nov-16 03:27N 32°42' W 117°09'0 0.0
2019-Nov-16 03:00N 32°42' W 117°09'0 0.0
2019-Nov-16 02:30N 32°42' W 117°09'17 4.3
2019-Nov-15 22:30N 32°28' W 117°23'19 7.6
2019-Nov-15 19:58N 32°11' W 117°33'58 9.0
2019-Nov-15 13:29N 31°15' W 117°14'14 9.2
2019-Nov-15 11:56N 31°02' W 117°09'22 9.1
2019-Nov-15 09:30N 30°41' W 117°02'9 9.0
2019-Nov-15 08:30N 30°32' W 116°60'14 9.0
2019-Nov-15 07:00N 30°19' W 116°55'25 8.6
2019-Nov-15 04:07N 29°55' W 116°47'52 8.9
2019-Nov-14 22:11N 29°05' W 116°30'145 9.0
2019-Nov-14 06:04N 26°56' W 115°15'  

Dump ship's entire track history